• Join FlightAware (Why Join?)
  • Login
  • US Flag 
09:46AM EDT


 

Airport Tracker/Info


-or-


 

Live Flight TrackerFlight Track Log ✈ AAL1771 ✈ 20-Jul-2013 ✈ KTPA - KORD

Flight Track Log - Related Links

Times and Time Zones

All times are in EDT time to prevent confusion due to time zone crossing. See the AAL1771 flight status page for this flight to view local times or setup timezone preferences in your user account.

Time Position Orientation Groundspeed Altitude Reporting Facility
EDT Latitude Longitude Course Direction KTS MPH feet Rate Location/Type
08:16AM 27.9500 -82.5500 349° North 171 197 1,300  Level Tampa TRACON
08:18AM 28.1705 -82.6445 334° Northwest  Level FlightAware Approximate
08:19AM 28.2765 -82.7023 334° Northwest  Level FlightAware Approximate
08:19AM 27.8514 -82.6297 216° Southwest 205 236 5,900  Level Jacksonville Center
08:20AM 28.3788 -82.7674 327° Northwest  Level FlightAware Approximate
08:20AM 27.9264 -82.6647 338° Northwest 158 182 8,600  Level Jacksonville Center
08:21AM 28.4921 -82.7833 North  Level FlightAware Approximate
08:21AM 28.0119 -82.6858 348° North 202 232 10,900  Level Jacksonville Center
08:22AM 28.6059 -82.8084 349° North  Level FlightAware Approximate
08:22AM 28.1081 -82.7092 348° North 275 316 12,400  Level Jacksonville Center
08:23AM 28.2125 -82.7347 348° North 341 392 14,900 2,700 Climbing Jacksonville Center
08:24AM 28.3189 -82.7606 348° North 367 422 17,800 2,400 Climbing Jacksonville Center
08:25AM 28.4233 -82.7886 347° North 374 430 19,700 1,740 Climbing Jacksonville Center
08:26AM 28.5339 -82.8028 354° North 385 443 21,300 1,500 Climbing Jacksonville Center
08:27AM 28.6425 -82.8286 348° North 392 451 22,700 1,140 Climbing Jacksonville Center
08:28AM 28.7531 -82.8522 349° North 392 451 23,600 840 Climbing Jacksonville Center
08:29AM 28.8700 -82.8403 North 398 458 24,400 960 Climbing Jacksonville Center
08:30AM 28.9847 -82.7881 22° Northeast 413 475 25,600 1,260 Climbing Jacksonville Center
08:31AM 29.1014 -82.7381 21° North 424 488 27,000 1,500 Climbing Jacksonville Center
08:32AM 29.2183 -82.6903 20° North 432 497 28,600 1,260 Climbing Jacksonville Center
08:33AM 29.3372 -82.6425 19° North 438 504 29,600 660 Climbing Jacksonville Center
08:34AM 29.4583 -82.6136 12° North 443 510 30,000 180 Climbing Jacksonville Center
08:35AM 29.5983 -82.6489 348° North 434 499 30,000 660 Level Jacksonville Center
08:36AM 29.7172 -82.6775 348° North 444 511 31,400 1,200 Climbing Jacksonville Center
08:37AM 29.8383 -82.7081 348° North 438 504 32,400 900 Climbing Jacksonville Center
08:38AM 29.9533 -82.7344 349° North 433 498 33,200 780 Climbing Jacksonville Center
08:39AM 30.0744 -82.7581 350° North 433 498 34,000 300 Climbing Jacksonville Center
08:40AM 30.1914 -82.7869 348° North 428 493 33,900 -60 Descending Jacksonville Center
08:41AM 30.3103 -82.8156 348° North 433 498 33,900  Level Jacksonville Center
08:42AM 30.4272 -82.8444 348° North 428 493 33,900  Level Jacksonville Center
08:43AM 30.5442 -82.8733 348° North 428 493 33,900  Level Jacksonville Center
08:44AM 30.6633 -82.9047 347° North 428 493 33,900  Level Jacksonville Center
08:45AM 30.7800 -82.9361 347° North 428 493 33,900  Level Jacksonville Center
08:46AM 30.8636 -83.0089 323° Northwest 418 481 34,000  Climbing Jacksonville Center
08:47AM 30.9428 -83.1178 310° West 418 481 34,000  Level Jacksonville Center
08:48AM 31.0239 -83.2247 312° West 423 487 34,000  Level Jacksonville Center
08:49AM 31.1008 -83.3317 310° West 428 493 34,000  Level Jacksonville Center
08:50AM 31.1819 -83.4389 311° West 433 498 34,000  Level Jacksonville Center
08:51AM 31.2628 -83.5439 312° West 433 498 34,000  Level Jacksonville Center
08:52AM 31.3436 -83.6514 311° West 438 504 34,000  Level Jacksonville Center
08:54AM 31.5211 -83.8975 310° West 447 514 34,000  Level Atlanta Center
08:55AM 31.6047 -84.0072 312° West 447 514 34,000  Level Atlanta Center
08:56AM 31.6861 -84.1169 311° West 447 514 34,000  Level Atlanta Center
08:57AM 31.7694 -84.2269 312° West 447 514 34,000  Level Atlanta Center
08:58AM 31.8569 -84.3444 311° West 447 514 34,000  Level Atlanta Center
08:59AM 31.9381 -84.4550 311° West 447 514 34,000 -60 Level Atlanta Center
09:00AM 32.0189 -84.5706 310° West 447 514 33,900  Descending Atlanta Center
09:01AM 32.1019 -84.6789 312° West 447 514 34,000  Climbing Atlanta Center
09:02AM 32.1806 -84.7897 310° West 447 514 34,000 -60 Level Atlanta Center
09:03AM 32.2614 -84.8986 311° West 453 521 33,900  Descending Atlanta Center
09:04AM 32.3439 -85.0100 311° West 448 516 34,000  Climbing Atlanta Center
09:05AM 32.4244 -85.1242 310° West 453 521 34,000  Level Atlanta Center
09:06AM 32.5108 -85.2408 311° West 453 521 34,000  Level Atlanta Center
09:07AM 32.5914 -85.3506 311° West 452 520 34,000  Level Atlanta Center
09:08AM 32.6714 -85.4650 310° West 452 520 34,000  Level Atlanta Center
09:09AM 32.7556 -85.5850 310° West 452 520 34,000  Level Atlanta Center
09:10AM 32.8375 -85.6978 311° West 452 520 34,000  Level Atlanta Center
09:11AM 32.9172 -85.8131 310° West 452 520 34,000  Level Atlanta Center
09:12AM 32.9992 -85.9286 310° West 452 520 34,000  Level Atlanta Center
09:13AM 33.0847 -86.0519 310° West 462 532 34,000  Level Atlanta Center
09:14AM 33.1686 -86.1656 311° West 467 537 34,000  Level Atlanta Center
09:15AM 33.2519 -86.2894 309° West 467 537 34,000 -60 Level Atlanta Center
09:16AM 33.3353 -86.4083 310° West 467 537 33,900  Descending Atlanta Center
09:17AM 33.4297 -86.4806 327° Northwest 451 519 34,000  Climbing Atlanta Center
09:18AM 33.5386 -86.5658 327° Northwest 457 526 34,000  Level Atlanta Center
09:19AM 33.6475 -86.6514 327° Northwest 468 539 34,000  Level Atlanta Center
09:20AM 33.7519 -86.7422 324° Northwest 468 539 34,000  Level Atlanta Center
09:22AM 34.0117 -86.9692 324° Northwest 484 557 34,000  Level Memphis Center
09:23AM 34.1183 -87.0531 327° Northwest 484 557 34,000  Level Memphis Center
09:24AM 34.2208 -87.1444 324° Northwest 470 541 34,000  Level Memphis Center
09:25AM 34.3144 -87.2189 327° Northwest 448 516 34,000 -60 Level Memphis Center
09:26AM 34.4211 -87.3056 326° Northwest 453 521 33,900  Descending Memphis Center
09:27AM 34.5256 -87.3975 324° Northwest 459 528 34,000  Climbing Memphis Center
09:28AM 34.6406 -87.4969 325° Northwest 459 528 34,000  Level Memphis Center
09:29AM 34.7425 -87.5847 325° Northwest 464 534 34,000 -60 Level Memphis Center
09:30AM 34.8489 -87.6772 325° Northwest 464 534 33,900  Descending Memphis Center
09:31AM 34.9406 -87.7606 323° Northwest 464 534 34,000  Climbing Memphis Center
09:32AM 35.0550 -87.8533 326° Northwest 464 534 34,000  Level Memphis Center
09:33AM 35.1486 -87.9394 323° Northwest 459 528 34,000  Level Memphis Center
09:34AM 35.2525 -88.0281 325° Northwest 459 528 34,000  Level Memphis Center
09:35AM 35.3564 -88.1192 324° Northwest 459 528 34,000  Level Memphis Center
09:36AM 35.4600 -88.2056 326° Northwest 458 527 34,000  Level Memphis Center
09:37AM 35.5617 -88.2975 324° Northwest 458 527 34,000  Level Memphis Center
09:38AM 35.6633 -88.3894 324° Northwest 458 527 34,000 -60 Level Memphis Center
09:39AM 35.7689 -88.4817 325° Northwest 458 527 33,900  Descending Memphis Center
09:40AM 35.8706 -88.5717 324° Northwest 458 527 34,000  Climbing Memphis Center
09:41AM 35.9739 -88.6642 324° Northwest 458 527 34,000 -60 Level Memphis Center
09:42AM 36.0794 -88.7594 324° Northwest 458 527 33,900  Descending Memphis Center
09:43AM 36.1786 -88.8503 324° Northwest 458 527 34,000  Climbing Memphis Center
09:44AM 36.2839 -88.9436 324° Northwest 463 533 34,000 -60 Level Memphis Center
09:45AM 36.3892 -89.0344 325° Northwest 463 533 33,900  Descending Memphis Center
09:46AM 36.5069 -89.1408 324° Northwest 464 534 34,000  Climbing Memphis Center
09:47AM 36.6100 -89.2375 323° Northwest 464 534 34,000  Level Memphis Center
09:48AM 36.7108 -89.3319 323° Northwest 464 534 34,000  Level Memphis Center
09:49AM 36.8117 -89.4292 322° Northwest 464 534 34,000  Level Memphis Center
09:50AM 36.9103 -89.5214 323° Northwest 464 534 34,000  Level Memphis Center
09:51AM 37.0108 -89.6164 323° Northwest 464 534 34,000  Level Memphis Center
09:53AM 37.1503 -89.7403 325° Northwest 451 519 34,000  Level Kansas City Center
09:54AM 37.2511 -89.8344 323° Northwest 452 520 34,000  Level Kansas City Center
09:55AM 37.3494 -89.9283 323° Northwest 447 514 34,000  Level Kansas City Center
09:56AM 37.4689 -90.0378 324° Northwest 443 510 34,000  Level Kansas City Center
09:57AM 37.5581 -90.1233 323° Northwest 442 509 34,000 -60 Level Kansas City Center
09:58AM 37.6556 -90.2153 323° Northwest 439 505 33,900  Descending Kansas City Center
09:59AM 37.7611 -90.2947 329° Northwest 441 507 34,000  Climbing Kansas City Center
10:00AM 37.8894 -90.3867 331° Northwest 443 510 33,900  Descending Kansas City Center
10:01AM 37.9958 -90.4647 330° Northwest 442 509 34,000  Climbing Kansas City Center
10:02AM 38.1047 -90.5419 331° Northwest 444 511 34,000  Level Kansas City Center
10:03AM 38.2144 -90.6061 335° Northwest 444 511 34,000  Level Kansas City Center
10:04AM 38.3339 -90.5661 15° North 444 511 34,000 -60 Level Kansas City Center
10:05AM 38.4522 -90.5314 13° North 441 507 33,900  Descending Kansas City Center
10:06AM 38.5950 -90.4875 14° North 438 504 34,000 -480 Climbing Kansas City Center
10:07AM 38.7181 -90.4478 14° North 445 512 33,000 -1,260 Descending Kansas City Center
10:08AM 38.8378 -90.4050 16° North 447 514 31,500 -1,500 Descending Kansas City Center
10:09AM 38.9514 -90.3681 14° North 452 520 30,000 -1,260 Descending Kansas City Center
10:10AM 39.0967 -90.3172 15° North 450 518 29,000 -480 Descending Kansas City Center
10:11AM 39.2197 -90.2750 15° North 454 522 29,000  Level Kansas City Center
10:12AM 39.3419 -90.2328 15° North 455 524 29,000  Level Kansas City Center
10:13AM 39.4661 -90.1900 15° North 460 529 29,000  Level Kansas City Center
10:14AM 39.5892 -90.1467 15° North 459 528 29,000  Level Kansas City Center
10:15AM 39.7322 -90.0961 15° North 461 531 29,000  Level Kansas City Center
10:16AM 39.8572 -90.0519 15° North 464 534 29,000  Level Kansas City Center
10:17AM 39.9831 -90.0081 15° North 466 536 29,000  Level Kansas City Center
10:19AM 40.1083 -89.9639 15° North 466 536 29,000 -240 Level Kansas City Center
10:20AM 40.2314 -89.9208 15° North 461 531 28,600 -1,020 Descending Kansas City Center
10:21AM 40.3500 -89.8786 15° North 446 513 27,000 -1,800 Descending Kansas City Center
10:21AM 40.4694 -89.8361 15° North 437 503 25,300 -1,560 Descending Chicago Center
10:22AM 40.5817 -89.7947 16° North 425 489 24,200 -660 Descending Chicago Center
10:23AM 40.6953 -89.7564 14° North 423 487 24,000 -120 Descending Chicago Center
10:24AM 40.8056 -89.7169 15° North 415 478 24,000  Level Chicago Center
10:26AM 40.9181 -89.6758 15° North 417 480 24,000  Level Chicago Center
10:27AM 41.0503 -89.6217 17° North 456 525 24,000 -420 Level Chicago Center
10:28AM 41.1206 -89.4772 57° Northeast 475 547 23,200 -1,560 Descending Chicago Center
10:29AM 41.1911 -89.3361 56° Northeast 463 533 20,800 -2,520 Descending Chicago Center
10:30AM 41.2664 -89.1897 56° Northeast 451 519 18,100 -2,400 Descending Chicago Center
10:31AM 41.3325 -89.0564 57° Northeast 439 505 15,900 -1,860 Descending Chicago Center
10:32AM 41.3994 -88.9272 55° Northeast 426 490 14,300 -2,100 Descending Chicago Center
10:33AM 41.4744 -88.7814 56° Northeast 403 464 11,600 -1,620 Descending Chicago Center
10:34AM 41.5317 -88.6575 58° Northeast 395 455 11,000 -300 Descending Chicago Center
10:35AM 41.5797 -88.5331 63° Northeast 382 440 11,000 -240 Level Chicago Center
10:36AM 41.6372 -88.4161 57° Northeast 378 435 10,600 -540 Descending Chicago Center
10:37AM 41.6989 -88.3094 52° Northeast 364 419 10,000 -420 Descending Chicago Center
10:38AM 41.7547 -88.2136 52° Northeast 331 381 9,800 -840 Descending Chicago Center
10:39AM 41.8144 -88.1103 52° Northeast 296 341 8,300 -1,260 Descending Chicago Center
10:40AM 41.8372 -88.0081 73° East 293 337 7,300 -660 Descending Chicago Center
10:41AM 41.8581 -87.9167 73° East 270 311 7,000 -300 Descending Chicago Center
10:42AM 41.8747 -87.8394 74° East 229 264 6,700 -720 Descending Chicago Center
10:43AM 41.8833 -87.7667 81° East 208 239 5,600 -1,080 Descending Chicago Center
10:44AM 41.8850 -87.6925 88° East 201 231 4,500 -780 Descending Chicago Center
10:45AM 41.9097 -87.6347 60° Northeast 198 228 4,100 -420 Descending Chicago Center